createdAt,value
2018-02-16T00:01:16.389Z,4.13
2018-02-16T00:03:45.477Z,4.47
2018-02-16T00:06:13.789Z,3.67
2018-02-16T00:08:42.069Z,4.30
2018-02-16T00:11:10.358Z,3.50
2018-02-16T00:13:38.649Z,5.13
2018-02-16T00:16:06.955Z,4.37
2018-02-16T00:18:35.257Z,3.60
2018-02-16T00:21:03.551Z,3.80
2018-02-16T00:23:31.846Z,5.07
2018-02-16T00:26:00.121Z,4.00
2018-02-16T00:28:28.435Z,5.00
2018-02-16T00:30:56.758Z,5.33
2018-02-16T00:33:25.050Z,3.50
2018-02-16T00:35:53.345Z,3.93
2018-02-16T00:38:21.636Z,3.93
2018-02-16T00:40:50.706Z,3.73
2018-02-16T00:43:19.010Z,4.00
2018-02-16T00:45:47.342Z,4.20
2018-02-16T00:48:15.618Z,4.00
2018-02-16T00:50:43.913Z,4.07
2018-02-16T00:53:12.209Z,4.37
2018-02-16T00:55:40.503Z,4.50
2018-02-16T00:58:08.813Z,4.63
2018-02-16T01:00:37.887Z,3.67
2018-02-16T01:03:06.172Z,3.93
2018-02-16T01:05:34.482Z,4.83
2018-02-16T01:08:02.754Z,4.13
2018-02-16T01:10:31.068Z,3.67
2018-02-16T01:12:59.387Z,3.93
2018-02-16T01:15:27.680Z,5.20
2018-02-16T01:17:55.991Z,4.13
2018-02-16T01:20:24.296Z,4.73
2018-02-16T01:22:52.607Z,4.70
2018-02-16T01:25:20.918Z,4.53
2018-02-16T01:27:49.202Z,3.70
2018-02-16T01:30:17.501Z,5.27
2018-02-16T01:32:45.815Z,4.07
2018-02-16T01:35:14.131Z,4.00
2018-02-16T01:37:42.437Z,3.57
2018-02-16T01:40:10.751Z,4.63
2018-02-16T01:42:39.056Z,3.67
2018-02-16T01:45:07.345Z,4.00
2018-02-16T01:47:35.622Z,4.30
2018-02-16T01:50:06.129Z,4.17
2018-02-16T01:52:34.416Z,3.50
2018-02-16T01:55:02.714Z,3.83
2018-02-16T01:57:31.010Z,4.20
2018-02-16T01:59:59.316Z,4.30
2018-02-16T02:02:27.584Z,4.10
2018-02-16T02:04:55.898Z,3.10
2018-02-16T02:07:24.190Z,4.63
2018-02-16T02:09:52.511Z,3.67
2018-02-16T02:12:20.488Z,4.13
2018-02-16T02:14:48.789Z,3.60
2018-02-16T02:17:17.092Z,3.20
2018-02-16T02:19:45.378Z,3.10
2018-02-16T02:22:13.689Z,3.33
2018-02-16T02:24:41.963Z,3.30
2018-02-16T02:27:10.275Z,4.63
2018-02-16T02:29:38.569Z,3.50
2018-02-16T02:32:06.854Z,2.97
2018-02-16T02:34:35.156Z,3.83
2018-02-16T02:37:03.455Z,3.23
2018-02-16T02:39:31.741Z,2.57
2018-02-16T02:42:00.047Z,3.37
2018-02-16T02:44:28.346Z,3.20
2018-02-16T02:46:56.664Z,2.87
2018-02-16T02:49:25.752Z,2.33
2018-02-16T02:51:54.825Z,2.73
2018-02-16T02:54:23.131Z,2.97
2018-02-16T02:56:51.448Z,3.17
2018-02-16T02:59:19.744Z,2.73
2018-02-16T03:01:48.074Z,3.10
2018-02-16T03:04:17.190Z,3.10
2018-02-16T03:06:45.503Z,3.80
2018-02-16T03:09:13.811Z,3.00
2018-02-16T03:11:42.109Z,4.03
2018-02-16T03:14:11.201Z,2.57
2018-02-16T03:16:39.500Z,3.10
2018-02-16T03:19:07.826Z,3.00
2018-02-16T03:21:36.120Z,3.43
2018-02-16T03:24:04.440Z,3.07
2018-02-16T03:26:32.737Z,3.20
2018-02-16T03:29:01.047Z,2.73
2018-02-16T03:31:29.358Z,4.00
2018-02-16T03:33:57.638Z,3.33
2018-02-16T03:36:25.944Z,3.47
2018-02-16T03:38:55.030Z,3.03
2018-02-16T03:41:23.329Z,3.93
2018-02-16T03:43:51.653Z,3.73
2018-02-16T03:46:19.945Z,3.30
2018-02-16T03:48:48.246Z,4.20
2018-02-16T03:51:16.548Z,2.43
2018-02-16T03:53:44.856Z,3.60
2018-02-16T03:56:13.148Z,2.93
2018-02-16T03:58:41.432Z,2.97
2018-02-16T04:01:09.737Z,3.67
2018-02-16T04:03:38.021Z,3.13
2018-02-16T04:06:06.350Z,3.27
2018-02-16T04:08:34.900Z,3.70
2018-02-16T04:11:03.215Z,3.10
2018-02-16T04:13:31.520Z,3.23
2018-02-16T04:15:59.818Z,3.27
2018-02-16T04:18:28.123Z,3.67
2018-02-16T04:20:56.418Z,3.20
2018-02-16T04:23:24.755Z,3.10
2018-02-16T04:25:53.064Z,3.00
2018-02-16T04:28:21.352Z,3.67
2018-02-16T04:30:49.642Z,2.87
2018-02-16T04:33:17.987Z,3.40
2018-02-16T04:35:46.265Z,3.13
2018-02-16T04:38:14.603Z,2.80
2018-02-16T04:40:42.917Z,3.40
2018-02-16T04:43:11.206Z,3.63
2018-02-16T04:45:39.493Z,3.30
2018-02-16T04:48:07.780Z,3.10
2018-02-16T04:50:36.109Z,3.93
2018-02-16T04:53:04.168Z,3.40
2018-02-16T04:55:32.451Z,3.60
2018-02-16T04:58:00.770Z,3.40
2018-02-16T05:00:29.825Z,4.10
2018-02-16T05:02:58.125Z,3.53
2018-02-16T05:05:26.400Z,4.23
2018-02-16T05:07:54.706Z,2.90
2018-02-16T05:10:22.998Z,3.03
2018-02-16T05:12:52.100Z,3.07
2018-02-16T05:15:20.385Z,3.00
2018-02-16T05:17:48.699Z,2.80
2018-02-16T05:20:16.984Z,4.20
2018-02-16T05:22:45.277Z,2.70
2018-02-16T05:25:13.578Z,3.10
2018-02-16T05:27:41.872Z,3.43
2018-02-16T05:30:10.943Z,2.77
2018-02-16T05:32:39.246Z,3.20
2018-02-16T05:35:07.513Z,2.80
2018-02-16T05:37:35.819Z,3.40
2018-02-16T05:40:03.999Z,3.53
2018-02-16T05:42:33.085Z,2.87
2018-02-16T05:45:01.372Z,3.00
2018-02-16T05:47:29.713Z,2.87
2018-02-16T05:49:58.163Z,3.53
2018-02-16T05:52:26.441Z,3.00
2018-02-16T05:54:54.771Z,3.37
2018-02-16T05:57:23.069Z,2.63
2018-02-16T05:59:51.356Z,2.77
2018-02-16T06:02:19.684Z,3.63
2018-02-16T06:04:47.984Z,3.80
2018-02-16T06:07:16.253Z,4.17
2018-02-16T06:09:44.530Z,3.77
2018-02-16T06:12:12.829Z,3.10
2018-02-16T06:14:41.124Z,3.60
2018-02-16T06:17:09.437Z,3.40
2018-02-16T06:19:37.710Z,3.90
2018-02-16T06:22:05.991Z,2.50
2018-02-16T06:24:34.265Z,3.70
2018-02-16T06:27:02.575Z,2.97
2018-02-16T06:29:30.878Z,2.63
2018-02-16T06:31:59.229Z,2.93
2018-02-16T06:34:27.538Z,3.10
2018-02-16T06:36:55.872Z,3.17
2018-02-16T06:39:24.160Z,2.83
2018-02-16T06:41:52.456Z,2.80
2018-02-16T06:44:21.513Z,2.40
2018-02-16T06:46:49.833Z,3.90
2018-02-16T06:49:18.140Z,3.40
2018-02-16T06:51:46.420Z,3.77
2018-02-16T06:54:14.726Z,3.33
2018-02-16T06:56:43.038Z,3.53
2018-02-16T06:59:12.272Z,2.87
2018-02-16T07:01:41.324Z,2.87
2018-02-16T07:04:09.642Z,3.33
2018-02-16T07:06:37.971Z,2.90
2018-02-16T07:09:05.943Z,3.57
2018-02-16T07:11:34.267Z,3.80
2018-02-16T07:14:02.565Z,3.10
2018-02-16T07:16:30.856Z,3.20
2018-02-16T07:18:59.959Z,2.77
2018-02-16T07:21:28.276Z,3.83
2018-02-16T07:23:56.411Z,3.17
2018-02-16T07:26:25.477Z,3.60
2018-02-16T07:28:53.809Z,3.03
2018-02-16T07:31:22.906Z,3.93
2018-02-16T07:33:51.190Z,3.30
2018-02-16T07:36:19.499Z,2.97
2018-02-16T07:38:47.800Z,3.30
2018-02-16T07:41:16.090Z,3.33
2018-02-16T07:43:47.520Z,2.70
2018-02-16T07:46:15.803Z,3.37
2018-02-16T07:48:44.101Z,3.70
2018-02-16T07:51:12.434Z,3.23
2018-02-16T07:53:40.866Z,2.70
2018-02-16T07:56:09.193Z,2.80
2018-02-16T07:58:38.261Z,3.47
2018-02-16T08:01:05.972Z,3.43
2018-02-16T08:03:34.262Z,3.00
2018-02-16T08:06:02.574Z,3.03
2018-02-16T08:08:30.881Z,2.90
2018-02-16T08:10:59.219Z,2.80
2018-02-16T08:13:27.507Z,4.30
2018-02-16T08:15:55.798Z,3.80
2018-02-16T08:18:24.107Z,4.97
2018-02-16T08:20:52.402Z,4.63
2018-02-16T08:23:20.686Z,3.40
2018-02-16T08:25:48.990Z,3.67
2018-02-16T08:28:17.400Z,2.97
2018-02-16T08:30:45.513Z,2.97
2018-02-16T08:33:13.877Z,3.43
2018-02-16T08:35:42.141Z,3.60
2018-02-16T08:38:10.437Z,2.60
2018-02-16T08:40:38.875Z,4.57
2018-02-16T08:43:07.175Z,2.97
2018-02-16T08:45:35.496Z,2.70
2018-02-16T08:48:03.776Z,2.93
2018-02-16T08:50:32.087Z,3.00
2018-02-16T08:53:00.375Z,2.87
2018-02-16T08:55:28.656Z,2.83
2018-02-16T08:57:56.956Z,3.13
2018-02-16T09:00:25.224Z,2.17
2018-02-16T09:02:54.447Z,2.70
2018-02-16T09:05:22.711Z,3.10
2018-02-16T09:07:51.941Z,3.30
2018-02-16T09:10:20.240Z,2.83
2018-02-16T09:12:48.533Z,2.63
2018-02-16T09:15:16.808Z,2.30
2018-02-16T09:17:45.134Z,2.63
2018-02-16T09:20:13.433Z,2.57
2018-02-16T09:22:41.741Z,2.33
2018-02-16T09:25:09.963Z,2.20
2018-02-16T09:27:38.263Z,2.93
2018-02-16T09:30:06.539Z,2.33
2018-02-16T09:32:34.847Z,2.87
2018-02-16T09:35:03.154Z,2.93
2018-02-16T09:37:31.885Z,2.60
2018-02-16T09:40:12.668Z,2.97
2018-02-16T09:42:41.525Z,3.10
2018-02-16T09:45:09.847Z,2.73
2018-02-16T09:47:38.891Z,2.77
2018-02-16T09:50:07.182Z,2.90
2018-02-16T09:52:35.488Z,2.20
2018-02-16T09:55:03.788Z,2.97
2018-02-16T09:57:32.074Z,3.27
2018-02-16T10:00:00.353Z,3.00
2018-02-16T10:02:28.673Z,2.83
2018-02-16T10:04:56.971Z,3.13
2018-02-16T10:07:25.269Z,2.17
2018-02-16T10:09:53.594Z,2.60
2018-02-16T10:12:21.881Z,2.50
2018-02-16T10:14:50.155Z,2.17
2018-02-16T10:17:18.446Z,2.20
2018-02-16T10:19:46.761Z,2.27
2018-02-16T10:22:15.105Z,2.60
2018-02-16T10:24:43.369Z,2.57
2018-02-16T10:27:12.445Z,2.43
2018-02-16T10:29:41.484Z,3.60
2018-02-16T10:32:09.781Z,2.60
2018-02-16T10:34:38.058Z,2.43
2018-02-16T10:37:06.328Z,2.80
2018-02-16T10:39:34.657Z,2.63
2018-02-16T10:42:02.923Z,2.90
2018-02-16T10:44:31.210Z,2.87
2018-02-16T10:46:59.303Z,2.87
2018-02-16T10:49:27.600Z,2.47
2018-02-16T10:51:56.647Z,3.17
2018-02-16T10:54:24.957Z,3.20
2018-02-16T10:56:53.238Z,2.00
2018-02-16T10:59:21.572Z,2.23
2018-02-16T11:01:55.259Z,2.70
2018-02-16T11:04:29.086Z,2.47
2018-02-16T11:07:02.859Z,2.73
2018-02-16T11:09:31.924Z,1.87
2018-02-16T11:12:00.048Z,2.63
2018-02-16T11:14:29.100Z,2.47
2018-02-16T11:16:57.395Z,3.27
2018-02-16T11:19:25.656Z,3.33
2018-02-16T11:21:53.951Z,2.23
2018-02-16T11:24:22.268Z,2.67
2018-02-16T11:26:51.319Z,2.37
2018-02-16T11:29:19.608Z,2.17
2018-02-16T11:31:47.886Z,2.37
2018-02-16T11:34:16.204Z,2.20
2018-02-16T11:36:44.480Z,2.30
2018-02-16T11:39:12.779Z,2.80
2018-02-16T11:41:41.084Z,2.97
2018-02-16T11:44:09.366Z,2.93
2018-02-16T11:46:37.634Z,3.57
2018-02-16T11:49:05.896Z,2.40
2018-02-16T11:51:34.165Z,2.50
2018-02-16T11:54:02.458Z,2.53
2018-02-16T11:56:30.747Z,2.73
2018-02-16T11:58:59.053Z,3.03
2018-02-16T12:01:27.355Z,2.60
2018-02-16T12:03:55.633Z,3.37
2018-02-16T12:06:23.909Z,2.67
2018-02-16T12:08:52.197Z,2.43
2018-02-16T12:11:20.505Z,2.70
2018-02-16T12:13:48.811Z,3.10
2018-02-16T12:16:17.858Z,2.43
2018-02-16T12:18:46.127Z,2.50
2018-02-16T12:21:14.412Z,2.50
2018-02-16T12:23:42.707Z,2.40
2018-02-16T12:26:10.969Z,2.40
2018-02-16T12:28:39.269Z,2.97
2018-02-16T12:31:07.557Z,2.43
2018-02-16T12:33:35.837Z,2.87
2018-02-16T12:36:04.869Z,2.07
2018-02-16T12:38:33.931Z,2.30
2018-02-16T12:41:02.192Z,2.63
2018-02-16T12:43:30.476Z,2.33
2018-02-16T12:45:58.776Z,2.50
2018-02-16T12:48:27.054Z,2.50
2018-02-16T12:50:55.327Z,2.17
2018-02-16T12:53:23.613Z,2.40
2018-02-16T12:55:51.884Z,2.33
2018-02-16T12:58:20.174Z,2.23
2018-02-16T13:00:48.446Z,2.10
2018-02-16T13:03:16.707Z,2.20
2018-02-16T13:05:44.985Z,3.13
2018-02-16T13:08:13.270Z,2.77
2018-02-16T13:10:41.577Z,2.00
2018-02-16T13:13:09.864Z,2.43
2018-02-16T13:15:38.916Z,2.57
2018-02-16T13:18:07.948Z,2.83
2018-02-16T13:20:36.238Z,2.33
2018-02-16T13:23:04.507Z,2.53
2018-02-16T13:25:34.578Z,2.57
2018-02-16T13:28:02.869Z,2.30
2018-02-16T13:30:31.139Z,2.60
2018-02-16T13:32:59.406Z,2.23
2018-02-16T13:35:27.726Z,2.70
2018-02-16T13:37:56.013Z,2.40
2018-02-16T13:40:24.282Z,2.70
2018-02-16T13:42:52.542Z,2.20
2018-02-16T13:45:20.830Z,2.53
2018-02-16T13:47:49.130Z,2.60
2018-02-16T13:50:17.413Z,2.93
2018-02-16T13:52:45.703Z,2.57
2018-02-16T13:55:13.988Z,2.33
2018-02-16T13:57:42.238Z,2.30
2018-02-16T14:00:11.299Z,3.13
2018-02-16T14:02:39.573Z,2.23
2018-02-16T14:05:07.670Z,2.00
2018-02-16T14:07:35.816Z,2.80
2018-02-16T14:10:03.932Z,2.27
2018-02-16T14:12:32.241Z,2.57
2018-02-16T14:15:01.287Z,2.07
2018-02-16T14:17:29.570Z,2.60
2018-02-16T14:19:57.834Z,2.13
2018-02-16T14:22:26.108Z,2.33
2018-02-16T14:24:54.392Z,2.77
2018-02-16T14:27:22.653Z,2.70
2018-02-16T14:29:50.937Z,2.20
2018-02-16T14:32:19.203Z,2.73
2018-02-16T14:34:47.474Z,2.30
2018-02-16T14:37:15.728Z,3.13
2018-02-16T14:39:44.260Z,3.27
2018-02-16T14:42:12.529Z,2.33
2018-02-16T14:44:40.814Z,2.03
2018-02-16T14:47:09.074Z,2.30
2018-02-16T14:49:37.379Z,2.50
2018-02-16T14:52:05.637Z,2.80
2018-02-16T14:54:33.923Z,2.30
2018-02-16T14:57:02.250Z,3.17
2018-02-16T14:59:30.544Z,2.17
2018-02-16T15:01:58.849Z,2.37
2018-02-16T15:04:27.168Z,2.80
2018-02-16T15:06:55.597Z,2.73
2018-02-16T15:09:23.897Z,2.50
2018-02-16T15:11:52.181Z,2.47
2018-02-16T15:14:20.457Z,2.40
2018-02-16T15:16:48.745Z,2.43
2018-02-16T15:19:17.044Z,2.40
2018-02-16T15:21:45.343Z,2.77
2018-02-16T15:24:13.622Z,2.83
2018-02-16T15:26:41.897Z,2.33
2018-02-16T15:29:10.186Z,2.60
2018-02-16T15:31:38.460Z,2.27
2018-02-16T15:34:06.723Z,3.20
2018-02-16T15:36:35.002Z,3.17
2018-02-16T15:39:02.861Z,2.00
2018-02-16T15:41:31.138Z,2.50
2018-02-16T15:43:59.413Z,2.37
2018-02-16T15:46:27.746Z,2.77
2018-02-16T15:48:56.799Z,2.83
2018-02-16T15:51:25.106Z,1.97
2018-02-16T15:53:53.384Z,2.53
2018-02-16T15:56:21.674Z,2.43
2018-02-16T15:58:49.950Z,3.10
2018-02-16T16:01:18.229Z,2.47
2018-02-16T16:03:46.512Z,2.40
2018-02-16T16:06:14.816Z,2.73
2018-02-16T16:08:43.090Z,2.50
2018-02-16T16:11:11.374Z,2.80
2018-02-16T16:13:39.880Z,2.57
2018-02-16T16:16:08.153Z,2.87
2018-02-16T16:18:36.411Z,2.83
2018-02-16T16:21:04.697Z,3.17
2018-02-16T16:23:32.992Z,3.03
2018-02-16T16:26:01.282Z,3.10
2018-02-16T16:28:30.114Z,3.10
2018-02-16T16:30:58.222Z,2.57
2018-02-16T16:33:26.525Z,3.30
2018-02-16T16:35:54.808Z,2.50
2018-02-16T16:38:22.893Z,3.10
2018-02-16T16:40:51.186Z,2.90
2018-02-16T16:43:19.437Z,3.13
2018-02-16T16:45:48.501Z,3.30
2018-02-16T16:48:16.767Z,3.47
2018-02-16T16:50:45.060Z,2.87
2018-02-16T16:53:13.350Z,2.90
2018-02-16T16:55:41.639Z,3.03
2018-02-16T16:58:10.007Z,2.93
2018-02-16T17:00:38.297Z,3.43
2018-02-16T17:03:06.570Z,2.70
2018-02-16T17:05:34.903Z,2.70
2018-02-16T17:08:03.205Z,3.53
2018-02-16T17:10:31.483Z,3.23
2018-02-16T17:12:59.951Z,2.90
2018-02-16T17:15:28.233Z,3.80
2018-02-16T17:17:56.536Z,3.37
2018-02-16T17:20:24.950Z,3.63
2018-02-16T17:22:53.226Z,3.33
2018-02-16T17:25:21.536Z,3.97
2018-02-16T17:27:49.799Z,4.00
2018-02-16T17:30:18.090Z,4.50
2018-02-16T17:32:46.390Z,4.37
2018-02-16T17:35:14.666Z,5.67
2018-02-16T17:37:42.962Z,3.87
2018-02-16T17:40:11.254Z,4.23
2018-02-16T17:42:39.529Z,3.30
2018-02-16T17:45:07.805Z,4.50
2018-02-16T17:47:36.131Z,3.90
2018-02-16T17:50:04.412Z,3.63
2018-02-16T17:52:32.501Z,4.60
2018-02-16T17:55:00.774Z,4.27
2018-02-16T17:57:29.050Z,3.73
2018-02-16T17:59:57.400Z,4.60
2018-02-16T18:02:26.256Z,4.30
2018-02-16T18:04:54.544Z,4.13
2018-02-16T18:07:23.759Z,4.17
2018-02-16T18:09:52.817Z,5.20
2018-02-16T18:12:21.936Z,3.53
2018-02-16T18:14:50.208Z,3.97
2018-02-16T18:17:18.472Z,4.47
2018-02-16T18:19:46.748Z,5.17
2018-02-16T18:22:15.020Z,4.77
2018-02-16T18:24:43.965Z,4.10
2018-02-16T18:27:12.239Z,4.57
2018-02-16T18:29:41.352Z,5.40
2018-02-16T18:32:10.409Z,4.40
2018-02-16T18:34:38.673Z,4.17
2018-02-16T18:37:06.925Z,5.03
2018-02-16T18:39:35.203Z,4.50
2018-02-16T18:42:03.487Z,5.27
2018-02-16T18:44:31.745Z,4.60
2018-02-16T18:47:00.037Z,4.80
2018-02-16T18:49:28.294Z,5.03
2018-02-16T18:51:56.588Z,4.33
2018-02-16T18:54:24.853Z,5.10
2018-02-16T18:56:53.130Z,4.60
2018-02-16T18:59:21.406Z,4.60
2018-02-16T19:01:49.697Z,4.13
2018-02-16T19:04:17.988Z,6.07
2018-02-16T19:06:50.201Z,6.67
2018-02-16T19:09:18.552Z,6.77
2018-02-16T19:11:46.812Z,5.70
2018-02-16T19:14:15.085Z,4.43
2018-02-16T19:16:43.170Z,3.77
2018-02-16T19:19:11.446Z,3.90
2018-02-16T19:21:39.709Z,3.97
2018-02-16T19:24:07.988Z,4.23
2018-02-16T19:26:36.258Z,3.97
2018-02-16T19:29:04.552Z,4.00
2018-02-16T19:31:32.852Z,4.40
2018-02-16T19:34:01.132Z,3.70
2018-02-16T19:36:29.423Z,3.90
2018-02-16T19:38:57.875Z,3.73
2018-02-16T19:41:26.184Z,3.60
2018-02-16T19:43:54.470Z,4.10
2018-02-16T19:46:22.797Z,4.87
2018-02-16T19:48:52.013Z,4.40
2018-02-16T19:51:20.320Z,5.27
2018-02-16T19:53:48.584Z,4.87
2018-02-16T19:56:16.900Z,5.80
2018-02-16T19:58:46.670Z,5.87
2018-02-16T20:01:14.957Z,6.20
2018-02-16T20:03:43.221Z,5.90
2018-02-16T20:06:11.501Z,6.23
2018-02-16T20:08:39.582Z,6.77
2018-02-16T20:11:07.875Z,6.63
2018-02-16T20:13:36.166Z,7.83
2018-02-16T20:16:04.429Z,7.30
2018-02-16T20:18:32.744Z,7.00
2018-02-16T20:21:00.927Z,8.37
2018-02-16T20:23:29.213Z,8.07
2018-02-16T20:25:59.043Z,8.27
2018-02-16T20:28:27.375Z,8.73
2018-02-16T20:30:55.639Z,7.70
2018-02-16T20:33:23.924Z,8.90
2018-02-16T20:35:52.218Z,8.13
2018-02-16T20:38:20.493Z,8.50
2018-02-16T20:40:48.753Z,7.40
2018-02-16T20:43:17.019Z,7.73
2018-02-16T20:45:45.281Z,7.80
2018-02-16T20:48:15.062Z,8.00
2018-02-16T20:50:43.342Z,7.97
2018-02-16T20:53:11.632Z,8.20
2018-02-16T20:55:39.914Z,9.30
2018-02-16T20:58:08.385Z,14.53
2018-02-16T21:00:36.751Z,13.37
2018-02-16T21:03:04.852Z,12.60
2018-02-16T21:05:33.073Z,11.53
2018-02-16T21:08:01.344Z,10.87
2018-02-16T21:10:31.543Z,11.90
2018-02-16T21:12:59.804Z,13.47
2018-02-16T21:15:28.098Z,18.10
2018-02-16T21:17:56.388Z,16.90
2018-02-16T21:20:24.680Z,12.87
2018-02-16T21:22:52.964Z,12.30
2018-02-16T21:25:21.277Z,11.10
2018-02-16T21:27:50.330Z,9.10
2018-02-16T21:30:18.586Z,8.77
2018-02-16T21:32:46.877Z,9.17
2018-02-16T21:35:14.956Z,10.00
2018-02-16T21:37:43.264Z,9.37
2018-02-16T21:40:11.560Z,10.40
2018-02-16T21:42:39.853Z,9.77
2018-02-16T21:45:08.134Z,9.80
2018-02-16T21:47:36.412Z,8.80
2018-02-16T21:50:04.352Z,9.13
2018-02-16T21:52:32.628Z,9.07
2018-02-16T21:55:00.958Z,9.57
2018-02-16T21:57:29.373Z,10.10
2018-02-16T21:59:58.491Z,8.90
2018-02-16T22:02:27.168Z,8.23
2018-02-16T22:04:55.486Z,9.23
2018-02-16T22:07:23.750Z,10.23
2018-02-16T22:09:52.036Z,9.67
2018-02-16T22:12:20.307Z,8.90
2018-02-16T22:14:48.602Z,9.97
2018-02-16T22:17:16.885Z,10.43
2018-02-16T22:19:45.187Z,10.37
2018-02-16T22:22:13.481Z,9.83
2018-02-16T22:24:41.742Z,9.77
2018-02-16T22:27:11.688Z,10.07
2018-02-16T22:29:40.727Z,10.20
2018-02-16T22:32:08.996Z,9.90
2018-02-16T22:34:37.268Z,10.03
2018-02-16T22:37:05.572Z,10.47
2018-02-16T22:39:33.849Z,10.00
2018-02-16T22:42:02.143Z,10.63
2018-02-16T22:44:30.444Z,10.80
2018-02-16T22:46:58.742Z,10.70
2018-02-16T22:49:27.004Z,10.60
2018-02-16T22:51:55.267Z,10.87
2018-02-16T22:54:23.381Z,10.70
2018-02-16T22:56:51.676Z,11.23
2018-02-16T22:59:20.706Z,10.10
2018-02-16T23:01:48.980Z,9.60
2018-02-16T23:04:17.234Z,9.90
2018-02-16T23:06:45.510Z,9.70
2018-02-16T23:09:13.790Z,9.50
2018-02-16T23:11:42.058Z,11.13
2018-02-16T23:14:10.343Z,10.83
2018-02-16T23:16:38.605Z,11.37
2018-02-16T23:19:06.901Z,9.70
2018-02-16T23:21:35.158Z,11.63
2018-02-16T23:24:03.263Z,10.67
2018-02-16T23:26:31.538Z,9.63
2018-02-16T23:29:01.008Z,10.43
2018-02-16T23:31:29.274Z,9.50
2018-02-16T23:33:57.574Z,10.23
2018-02-16T23:36:25.850Z,10.10
2018-02-16T23:38:54.126Z,10.37
2018-02-16T23:41:22.402Z,11.73
2018-02-16T23:43:50.646Z,11.23
2018-02-16T23:46:18.918Z,10.87
2018-02-16T23:48:47.191Z,10.00
2018-02-16T23:51:15.492Z,9.60
2018-02-16T23:53:43.742Z,9.23
2018-02-16T23:56:12.787Z,9.40
2018-02-16T23:58:41.042Z,9.77
